sensor_id;sensor_type;location;lat;lon;timestamp;P1;durP1;ratioP1;P2;durP2;ratioP2
1128;SDS011;553;51.038;7.216;2022-10-17T00:00:35;8.60;;;6.50;;
1128;SDS011;553;51.038;7.216;2022-10-17T00:03:02;9.27;;;6.70;;
1128;SDS011;553;51.038;7.216;2022-10-17T00:05:28;7.63;;;6.90;;
1128;SDS011;553;51.038;7.216;2022-10-17T00:07:55;8.03;;;6.90;;
1128;SDS011;553;51.038;7.216;2022-10-17T00:10:22;7.50;;;6.80;;
1128;SDS011;553;51.038;7.216;2022-10-17T00:12:49;7.73;;;6.73;;
1128;SDS011;553;51.038;7.216;2022-10-17T00:15:17;8.50;;;6.33;;
1128;SDS011;553;51.038;7.216;2022-10-17T00:17:45;9.50;;;6.43;;
1128;SDS011;553;51.038;7.216;2022-10-17T00:20:12;8.73;;;6.80;;
1128;SDS011;553;51.038;7.216;2022-10-17T00:22:39;8.00;;;6.80;;
1128;SDS011;553;51.038;7.216;2022-10-17T00:25:06;7.70;;;6.10;;
1128;SDS011;553;51.038;7.216;2022-10-17T00:27:37;7.73;;;6.40;;
1128;SDS011;553;51.038;7.216;2022-10-17T00:30:06;10.57;;;6.37;;
1128;SDS011;553;51.038;7.216;2022-10-17T00:32:35;9.33;;;6.60;;
1128;SDS011;553;51.038;7.216;2022-10-17T00:35:02;10.63;;;6.77;;
1128;SDS011;553;51.038;7.216;2022-10-17T00:37:29;7.73;;;6.93;;
1128;SDS011;553;51.038;7.216;2022-10-17T00:39:57;7.10;;;6.40;;
1128;SDS011;553;51.038;7.216;2022-10-17T00:42:24;9.03;;;6.47;;
1128;SDS011;553;51.038;7.216;2022-10-17T00:47:34;9.90;;;7.40;;
1128;SDS011;553;51.038;7.216;2022-10-17T00:50:02;7.70;;;5.90;;
1128;SDS011;553;51.038;7.216;2022-10-17T00:52:31;9.00;;;6.27;;
1128;SDS011;553;51.038;7.216;2022-10-17T00:55:19;8.87;;;5.90;;
1128;SDS011;553;51.038;7.216;2022-10-17T00:57:48;7.00;;;6.10;;
1128;SDS011;553;51.038;7.216;2022-10-17T01:00:17;10.10;;;6.63;;
1128;SDS011;553;51.038;7.216;2022-10-17T01:02:44;9.00;;;6.60;;
1128;SDS011;553;51.038;7.216;2022-10-17T01:05:11;9.90;;;6.10;;
1128;SDS011;553;51.038;7.216;2022-10-17T01:07:40;8.53;;;5.53;;
1128;SDS011;553;51.038;7.216;2022-10-17T01:10:09;6.60;;;5.90;;
1128;SDS011;553;51.038;7.216;2022-10-17T01:12:51;10.17;;;5.73;;
1128;SDS011;553;51.038;7.216;2022-10-17T01:15:28;9.53;;;6.00;;
1128;SDS011;553;51.038;7.216;2022-10-17T01:32:29;6.27;;;5.63;;
1128;SDS011;553;51.038;7.216;2022-10-17T01:35:09;6.87;;;5.57;;
1128;SDS011;553;51.038;7.216;2022-10-17T01:40:50;9.13;;;5.43;;
1128;SDS011;553;51.038;7.216;2022-10-17T01:43:25;7.20;;;5.50;;
1128;SDS011;553;51.038;7.216;2022-10-17T01:48:59;7.50;;;5.33;;
1128;SDS011;553;51.038;7.216;2022-10-17T01:51:29;8.47;;;5.80;;
1128;SDS011;553;51.038;7.216;2022-10-17T01:54:09;7.10;;;5.53;;
1128;SDS011;553;51.038;7.216;2022-10-17T01:56:51;10.20;;;6.13;;
1128;SDS011;553;51.038;7.216;2022-10-17T01:59:22;5.73;;;5.13;;
1128;SDS011;553;51.038;7.216;2022-10-17T02:01:56;11.10;;;6.30;;
1128;SDS011;553;51.038;7.216;2022-10-17T02:04:24;14.17;;;6.97;;
1128;SDS011;553;51.038;7.216;2022-10-17T02:06:51;12.90;;;6.60;;
1128;SDS011;553;51.038;7.216;2022-10-17T02:09:20;8.10;;;5.67;;
1128;SDS011;553;51.038;7.216;2022-10-17T02:12:00;7.50;;;5.27;;
1128;SDS011;553;51.038;7.216;2022-10-17T02:15:05;6.70;;;6.00;;
1128;SDS011;553;51.038;7.216;2022-10-17T02:17:55;9.50;;;6.43;;
1128;SDS011;553;51.038;7.216;2022-10-17T02:20:49;7.03;;;5.70;;
1128;SDS011;553;51.038;7.216;2022-10-17T02:23:37;11.37;;;6.77;;
1128;SDS011;553;51.038;7.216;2022-10-17T02:26:27;7.10;;;6.00;;
1128;SDS011;553;51.038;7.216;2022-10-17T02:29:05;7.30;;;5.83;;
1128;SDS011;553;51.038;7.216;2022-10-17T02:31:58;9.60;;;5.83;;
1128;SDS011;553;51.038;7.216;2022-10-17T02:34:36;8.10;;;6.07;;
1128;SDS011;553;51.038;7.216;2022-10-17T02:37:06;6.10;;;5.50;;
1128;SDS011;553;51.038;7.216;2022-10-17T02:39:35;8.17;;;6.23;;
1128;SDS011;553;51.038;7.216;2022-10-17T02:42:05;7.93;;;6.03;;
1128;SDS011;553;51.038;7.216;2022-10-17T02:44:36;7.40;;;5.97;;
1128;SDS011;553;51.038;7.216;2022-10-17T02:47:11;9.03;;;6.07;;
1128;SDS011;553;51.038;7.216;2022-10-17T02:49:46;8.13;;;6.53;;
1128;SDS011;553;51.038;7.216;2022-10-17T02:52:20;10.03;;;6.23;;
1128;SDS011;553;51.038;7.216;2022-10-17T02:58:06;12.37;;;5.70;;
1128;SDS011;553;51.038;7.216;2022-10-17T03:00:37;9.63;;;5.67;;
1128;SDS011;553;51.038;7.216;2022-10-17T03:03:21;9.10;;;5.60;;
1128;SDS011;553;51.038;7.216;2022-10-17T03:05:50;7.50;;;5.77;;
1128;SDS011;553;51.038;7.216;2022-10-17T03:08:20;11.60;;;5.30;;
1128;SDS011;553;51.038;7.216;2022-10-17T03:10:48;15.07;;;7.30;;
1128;SDS011;553;51.038;7.216;2022-10-17T03:13:17;8.00;;;6.30;;
1128;SDS011;553;51.038;7.216;2022-10-17T03:15:44;8.33;;;5.53;;
1128;SDS011;553;51.038;7.216;2022-10-17T03:18:12;13.10;;;6.30;;
1128;SDS011;553;51.038;7.216;2022-10-17T03:20:39;7.97;;;5.60;;
1128;SDS011;553;51.038;7.216;2022-10-17T03:23:07;6.70;;;5.93;;
1128;SDS011;553;51.038;7.216;2022-10-17T03:25:34;7.30;;;6.23;;
1128;SDS011;553;51.038;7.216;2022-10-17T03:28:01;7.53;;;5.50;;
1128;SDS011;553;51.038;7.216;2022-10-17T03:30:27;7.37;;;5.97;;
1128;SDS011;553;51.038;7.216;2022-10-17T03:32:56;7.93;;;5.13;;
1128;SDS011;553;51.038;7.216;2022-10-17T03:35:23;7.60;;;5.23;;
1128;SDS011;553;51.038;7.216;2022-10-17T03:37:50;7.17;;;5.00;;
1128;SDS011;553;51.038;7.216;2022-10-17T03:40:19;8.17;;;5.00;;
1128;SDS011;553;51.038;7.216;2022-10-17T03:42:46;6.20;;;4.93;;
1128;SDS011;553;51.038;7.216;2022-10-17T03:45:12;12.13;;;5.30;;
1128;SDS011;553;51.038;7.216;2022-10-17T03:47:40;7.00;;;5.63;;
1128;SDS011;553;51.038;7.216;2022-10-17T03:50:07;9.17;;;5.97;;
1128;SDS011;553;51.038;7.216;2022-10-17T03:52:36;10.50;;;5.90;;
1128;SDS011;553;51.038;7.216;2022-10-17T03:55:02;6.87;;;5.50;;
1128;SDS011;553;51.038;7.216;2022-10-17T03:57:29;6.83;;;4.87;;
1128;SDS011;553;51.038;7.216;2022-10-17T03:59:57;6.70;;;4.90;;
1128;SDS011;553;51.038;7.216;2022-10-17T04:02:24;7.10;;;4.93;;
1128;SDS011;553;51.038;7.216;2022-10-17T04:04:50;7.00;;;5.53;;
1128;SDS011;553;51.038;7.216;2022-10-17T04:07:17;6.17;;;5.57;;
1128;SDS011;553;51.038;7.216;2022-10-17T04:09:46;6.10;;;5.27;;
1128;SDS011;553;51.038;7.216;2022-10-17T04:12:17;7.40;;;5.00;;
1128;SDS011;553;51.038;7.216;2022-10-17T04:14:43;7.10;;;4.87;;
1128;SDS011;553;51.038;7.216;2022-10-17T04:17:10;6.53;;;5.70;;
1128;SDS011;553;51.038;7.216;2022-10-17T04:19:37;11.00;;;5.87;;
1128;SDS011;553;51.038;7.216;2022-10-17T04:22:04;8.00;;;5.40;;
1128;SDS011;553;51.038;7.216;2022-10-17T04:24:35;10.97;;;4.97;;
1128;SDS011;553;51.038;7.216;2022-10-17T04:27:08;6.47;;;5.37;;
1128;SDS011;553;51.038;7.216;2022-10-17T04:29:38;7.87;;;5.57;;
1128;SDS011;553;51.038;7.216;2022-10-17T04:32:14;8.07;;;5.90;;
1128;SDS011;553;51.038;7.216;2022-10-17T04:34:48;6.53;;;5.90;;
1128;SDS011;553;51.038;7.216;2022-10-17T04:37:16;5.53;;;5.00;;
1128;SDS011;553;51.038;7.216;2022-10-17T04:39:44;9.50;;;6.37;;
1128;SDS011;553;51.038;7.216;2022-10-17T04:42:11;8.90;;;5.20;;
1128;SDS011;553;51.038;7.216;2022-10-17T04:44:38;13.80;;;5.80;;
1128;SDS011;553;51.038;7.216;2022-10-17T04:47:05;14.27;;;5.87;;
1128;SDS011;553;51.038;7.216;2022-10-17T04:49:33;6.53;;;5.10;;
1128;SDS011;553;51.038;7.216;2022-10-17T04:52:07;7.47;;;5.13;;
1128;SDS011;553;51.038;7.216;2022-10-17T04:54:40;6.90;;;5.20;;
1128;SDS011;553;51.038;7.216;2022-10-17T04:57:08;8.90;;;6.10;;
1128;SDS011;553;51.038;7.216;2022-10-17T04:59:37;7.27;;;5.47;;
1128;SDS011;553;51.038;7.216;2022-10-17T05:02:14;7.90;;;5.60;;
1128;SDS011;553;51.038;7.216;2022-10-17T05:04:41;9.03;;;5.20;;
1128;SDS011;553;51.038;7.216;2022-10-17T05:07:09;8.00;;;5.90;;
1128;SDS011;553;51.038;7.216;2022-10-17T05:09:45;7.80;;;5.13;;
1128;SDS011;553;51.038;7.216;2022-10-17T05:12:11;11.97;;;5.77;;
1128;SDS011;553;51.038;7.216;2022-10-17T05:14:41;6.23;;;5.63;;
1128;SDS011;553;51.038;7.216;2022-10-17T05:17:08;11.10;;;5.70;;
1128;SDS011;553;51.038;7.216;2022-10-17T05:19:35;7.77;;;5.80;;
1128;SDS011;553;51.038;7.216;2022-10-17T05:22:03;9.70;;;5.30;;
1128;SDS011;553;51.038;7.216;2022-10-17T05:24:29;6.93;;;5.90;;
1128;SDS011;553;51.038;7.216;2022-10-17T05:26:56;8.00;;;5.03;;
1128;SDS011;553;51.038;7.216;2022-10-17T05:29:23;10.97;;;5.27;;
1128;SDS011;553;51.038;7.216;2022-10-17T05:31:56;10.20;;;5.40;;
1128;SDS011;553;51.038;7.216;2022-10-17T05:34:23;9.17;;;5.50;;
1128;SDS011;553;51.038;7.216;2022-10-17T05:36:50;8.50;;;5.13;;
1128;SDS011;553;51.038;7.216;2022-10-17T05:39:19;5.77;;;5.20;;
1128;SDS011;553;51.038;7.216;2022-10-17T05:41:49;6.53;;;4.93;;
1128;SDS011;553;51.038;7.216;2022-10-17T05:44:17;9.17;;;5.00;;
1128;SDS011;553;51.038;7.216;2022-10-17T05:46:49;8.00;;;5.47;;
1128;SDS011;553;51.038;7.216;2022-10-17T05:49:16;6.17;;;5.00;;
1128;SDS011;553;51.038;7.216;2022-10-17T05:51:58;6.50;;;5.37;;
1128;SDS011;553;51.038;7.216;2022-10-17T05:54:26;9.47;;;5.87;;
1128;SDS011;553;51.038;7.216;2022-10-17T05:56:54;9.00;;;5.63;;
1128;SDS011;553;51.038;7.216;2022-10-17T05:59:25;6.53;;;5.73;;
1128;SDS011;553;51.038;7.216;2022-10-17T06:02:05;5.67;;;4.67;;
1128;SDS011;553;51.038;7.216;2022-10-17T06:04:33;6.77;;;5.43;;
1128;SDS011;553;51.038;7.216;2022-10-17T06:07:00;6.70;;;5.37;;
1128;SDS011;553;51.038;7.216;2022-10-17T06:09:29;7.63;;;5.33;;
1128;SDS011;553;51.038;7.216;2022-10-17T06:11:55;8.07;;;5.63;;
1128;SDS011;553;51.038;7.216;2022-10-17T06:14:22;6.00;;;5.40;;
1128;SDS011;553;51.038;7.216;2022-10-17T06:16:52;7.70;;;5.53;;
1128;SDS011;553;51.038;7.216;2022-10-17T06:19:18;9.33;;;5.90;;
1128;SDS011;553;51.038;7.216;2022-10-17T06:21:45;5.13;;;4.67;;
1128;SDS011;553;51.038;7.216;2022-10-17T06:24:16;9.50;;;5.73;;
1128;SDS011;553;51.038;7.216;2022-10-17T06:26:42;8.00;;;5.00;;
1128;SDS011;553;51.038;7.216;2022-10-17T06:29:12;7.33;;;5.20;;
1128;SDS011;553;51.038;7.216;2022-10-17T06:31:43;8.97;;;5.80;;
1128;SDS011;553;51.038;7.216;2022-10-17T06:34:10;7.30;;;4.77;;
1128;SDS011;553;51.038;7.216;2022-10-17T06:36:38;10.87;;;4.80;;
1128;SDS011;553;51.038;7.216;2022-10-17T06:39:06;8.13;;;5.20;;
1128;SDS011;553;51.038;7.216;2022-10-17T06:41:50;9.27;;;5.57;;
1128;SDS011;553;51.038;7.216;2022-10-17T06:44:18;7.13;;;5.23;;
1128;SDS011;553;51.038;7.216;2022-10-17T06:47:03;6.80;;;4.97;;
1128;SDS011;553;51.038;7.216;2022-10-17T06:49:30;6.83;;;5.67;;
1128;SDS011;553;51.038;7.216;2022-10-17T06:52:23;9.30;;;5.27;;
1128;SDS011;553;51.038;7.216;2022-10-17T06:55:16;6.73;;;4.67;;
1128;SDS011;553;51.038;7.216;2022-10-17T06:58:00;7.00;;;4.80;;
1128;SDS011;553;51.038;7.216;2022-10-17T07:00:47;6.80;;;5.37;;
1128;SDS011;553;51.038;7.216;2022-10-17T07:03:15;8.30;;;5.20;;
1128;SDS011;553;51.038;7.216;2022-10-17T07:05:41;5.20;;;4.70;;
1128;SDS011;553;51.038;7.216;2022-10-17T07:08:16;8.10;;;4.70;;
1128;SDS011;553;51.038;7.216;2022-10-17T07:10:42;5.30;;;4.30;;
1128;SDS011;553;51.038;7.216;2022-10-17T07:13:09;8.60;;;5.30;;
1128;SDS011;553;51.038;7.216;2022-10-17T07:15:36;5.83;;;4.97;;
1128;SDS011;553;51.038;7.216;2022-10-17T07:18:04;8.23;;;4.73;;
1128;SDS011;553;51.038;7.216;2022-10-17T07:20:31;5.80;;;4.80;;
1128;SDS011;553;51.038;7.216;2022-10-17T07:22:57;8.60;;;4.83;;
1128;SDS011;553;51.038;7.216;2022-10-17T07:25:24;7.67;;;4.23;;
1128;SDS011;553;51.038;7.216;2022-10-17T07:27:55;6.60;;;5.07;;
1128;SDS011;553;51.038;7.216;2022-10-17T07:30:22;5.67;;;4.20;;
1128;SDS011;553;51.038;7.216;2022-10-17T07:33:00;6.20;;;4.67;;
1128;SDS011;553;51.038;7.216;2022-10-17T07:35:27;7.63;;;4.93;;
1128;SDS011;553;51.038;7.216;2022-10-17T07:37:54;8.33;;;4.60;;
1128;SDS011;553;51.038;7.216;2022-10-17T07:40:21;8.10;;;4.40;;
1128;SDS011;553;51.038;7.216;2022-10-17T07:42:47;6.60;;;4.33;;
1128;SDS011;553;51.038;7.216;2022-10-17T07:45:14;5.67;;;4.20;;
1128;SDS011;553;51.038;7.216;2022-10-17T07:47:42;6.13;;;4.27;;
1128;SDS011;553;51.038;7.216;2022-10-17T07:50:11;5.70;;;4.40;;
1128;SDS011;553;51.038;7.216;2022-10-17T07:52:38;6.87;;;4.83;;
1128;SDS011;553;51.038;7.216;2022-10-17T07:55:05;6.47;;;4.70;;
1128;SDS011;553;51.038;7.216;2022-10-17T07:57:32;8.63;;;4.73;;
1128;SDS011;553;51.038;7.216;2022-10-17T07:59:59;7.73;;;4.50;;
1128;SDS011;553;51.038;7.216;2022-10-17T08:02:26;6.00;;;4.30;;
1128;SDS011;553;51.038;7.216;2022-10-17T08:04:53;4.73;;;4.20;;
1128;SDS011;553;51.038;7.216;2022-10-17T08:07:20;6.73;;;4.37;;
1128;SDS011;553;51.038;7.216;2022-10-17T08:09:54;6.20;;;4.13;;
1128;SDS011;553;51.038;7.216;2022-10-17T08:12:21;5.77;;;4.80;;
1128;SDS011;553;51.038;7.216;2022-10-17T08:14:47;4.87;;;4.40;;
1128;SDS011;553;51.038;7.216;2022-10-17T08:17:14;7.00;;;3.87;;
1128;SDS011;553;51.038;7.216;2022-10-17T08:19:41;8.37;;;4.23;;
1128;SDS011;553;51.038;7.216;2022-10-17T08:22:07;6.37;;;4.63;;
1128;SDS011;553;51.038;7.216;2022-10-17T08:24:34;5.40;;;4.47;;
1128;SDS011;553;51.038;7.216;2022-10-17T08:27:01;5.00;;;3.77;;
1128;SDS011;553;51.038;7.216;2022-10-17T08:29:29;4.37;;;3.97;;
1128;SDS011;553;51.038;7.216;2022-10-17T08:31:57;6.80;;;4.60;;
1128;SDS011;553;51.038;7.216;2022-10-17T08:34:27;7.23;;;3.93;;
1128;SDS011;553;51.038;7.216;2022-10-17T08:36:54;7.37;;;3.77;;
1128;SDS011;553;51.038;7.216;2022-10-17T08:39:20;5.00;;;4.00;;
1128;SDS011;553;51.038;7.216;2022-10-17T08:44:38;7.10;;;3.63;;
1128;SDS011;553;51.038;7.216;2022-10-17T08:47:27;6.87;;;4.27;;
1128;SDS011;553;51.038;7.216;2022-10-17T08:50:01;4.70;;;3.67;;
1128;SDS011;553;51.038;7.216;2022-10-17T08:55:32;4.80;;;3.70;;
1128;SDS011;553;51.038;7.216;2022-10-17T08:58:14;8.67;;;4.13;;
1128;SDS011;553;51.038;7.216;2022-10-17T09:00:47;6.10;;;4.03;;
1128;SDS011;553;51.038;7.216;2022-10-17T09:03:48;5.03;;;4.50;;
1128;SDS011;553;51.038;7.216;2022-10-17T09:06:25;10.17;;;4.17;;
1128;SDS011;553;51.038;7.216;2022-10-17T09:17:33;6.20;;;4.03;;
1128;SDS011;553;51.038;7.216;2022-10-17T09:23:14;8.73;;;4.30;;
1128;SDS011;553;51.038;7.216;2022-10-17T09:25:44;5.23;;;3.80;;
1128;SDS011;553;51.038;7.216;2022-10-17T09:30:56;6.53;;;4.20;;
1128;SDS011;553;51.038;7.216;2022-10-17T09:33:44;5.00;;;3.87;;
1128;SDS011;553;51.038;7.216;2022-10-17T09:36:22;9.50;;;3.90;;
1128;SDS011;553;51.038;7.216;2022-10-17T09:38:53;6.00;;;4.20;;
1128;SDS011;553;51.038;7.216;2022-10-17T09:41:23;7.13;;;4.00;;
1128;SDS011;553;51.038;7.216;2022-10-17T09:44:14;5.93;;;4.23;;
1128;SDS011;553;51.038;7.216;2022-10-17T09:46:41;8.07;;;4.27;;
1128;SDS011;553;51.038;7.216;2022-10-17T09:49:17;6.90;;;4.07;;
1128;SDS011;553;51.038;7.216;2022-10-17T09:51:51;7.03;;;3.83;;
1128;SDS011;553;51.038;7.216;2022-10-17T09:54:26;7.47;;;4.07;;
1128;SDS011;553;51.038;7.216;2022-10-17T09:57:08;6.50;;;3.67;;
1128;SDS011;553;51.038;7.216;2022-10-17T10:02:20;5.63;;;3.47;;
1128;SDS011;553;51.038;7.216;2022-10-17T10:04:53;5.83;;;3.90;;
1128;SDS011;553;51.038;7.216;2022-10-17T10:07:31;8.07;;;3.83;;
1128;SDS011;553;51.038;7.216;2022-10-17T10:10:03;6.50;;;4.00;;
1128;SDS011;553;51.038;7.216;2022-10-17T10:15:38;7.10;;;4.47;;
1128;SDS011;553;51.038;7.216;2022-10-17T10:23:39;6.10;;;4.00;;
1128;SDS011;553;51.038;7.216;2022-10-17T10:26:21;6.63;;;4.40;;
1128;SDS011;553;51.038;7.216;2022-10-17T10:28:50;12.30;;;4.10;;
1128;SDS011;553;51.038;7.216;2022-10-17T10:31:30;6.30;;;4.20;;
1128;SDS011;553;51.038;7.216;2022-10-17T10:34:00;3.90;;;3.50;;
1128;SDS011;553;51.038;7.216;2022-10-17T10:36:44;4.77;;;4.30;;
1128;SDS011;553;51.038;7.216;2022-10-17T10:39:25;4.40;;;4.00;;
1128;SDS011;553;51.038;7.216;2022-10-17T10:41:57;5.80;;;4.50;;
1128;SDS011;553;51.038;7.216;2022-10-17T10:44:28;5.70;;;3.57;;
1128;SDS011;553;51.038;7.216;2022-10-17T10:47:08;6.50;;;4.03;;
1128;SDS011;553;51.038;7.216;2022-10-17T10:49:52;4.83;;;3.80;;
1128;SDS011;553;51.038;7.216;2022-10-17T10:56:03;6.10;;;3.97;;
1128;SDS011;553;51.038;7.216;2022-10-17T10:58:59;6.77;;;3.57;;
1128;SDS011;553;51.038;7.216;2022-10-17T11:04:41;7.10;;;3.53;;
1128;SDS011;553;51.038;7.216;2022-10-17T11:07:14;6.80;;;3.67;;
1128;SDS011;553;51.038;7.216;2022-10-17T11:12:19;6.90;;;4.00;;
1128;SDS011;553;51.038;7.216;2022-10-17T11:15:13;8.70;;;4.50;;
1128;SDS011;553;51.038;7.216;2022-10-17T11:17:42;5.50;;;4.10;;
1128;SDS011;553;51.038;7.216;2022-10-17T11:25:50;6.33;;;3.80;;
1128;SDS011;553;51.038;7.216;2022-10-17T11:28:18;5.53;;;4.67;;
1128;SDS011;553;51.038;7.216;2022-10-17T11:33:34;8.33;;;5.43;;
1128;SDS011;553;51.038;7.216;2022-10-17T11:36:09;6.23;;;4.60;;
1128;SDS011;553;51.038;7.216;2022-10-17T11:38:53;8.17;;;4.33;;
1128;SDS011;553;51.038;7.216;2022-10-17T11:41:36;5.33;;;4.67;;
1128;SDS011;553;51.038;7.216;2022-10-17T11:46:53;5.47;;;3.90;;
1128;SDS011;553;51.038;7.216;2022-10-17T11:49:39;6.97;;;4.70;;
1128;SDS011;553;51.038;7.216;2022-10-17T11:52:19;5.70;;;3.93;;
1128;SDS011;553;51.038;7.216;2022-10-17T11:55:23;12.40;;;4.40;;
1128;SDS011;553;51.038;7.216;2022-10-17T11:57:55;6.67;;;4.37;;
1128;SDS011;553;51.038;7.216;2022-10-17T12:07:12;7.23;;;4.30;;
1128;SDS011;553;51.038;7.216;2022-10-17T12:12:06;9.37;;;3.80;;
1128;SDS011;553;51.038;7.216;2022-10-17T12:14:34;4.97;;;4.47;;
1128;SDS011;553;51.038;7.216;2022-10-17T12:17:03;13.70;;;4.90;;
1128;SDS011;553;51.038;7.216;2022-10-17T12:19:45;11.30;;;4.40;;
1128;SDS011;553;51.038;7.216;2022-10-17T12:22:17;6.67;;;4.40;;
1128;SDS011;553;51.038;7.216;2022-10-17T12:25:02;7.53;;;4.60;;
1128;SDS011;553;51.038;7.216;2022-10-17T12:27:39;8.07;;;4.70;;
1128;SDS011;553;51.038;7.216;2022-10-17T12:32:59;5.40;;;4.70;;
1128;SDS011;553;51.038;7.216;2022-10-17T12:35:49;7.00;;;4.50;;
1128;SDS011;553;51.038;7.216;2022-10-17T12:38:29;6.07;;;5.43;;
1128;SDS011;553;51.038;7.216;2022-10-17T12:40:58;5.80;;;3.93;;
1128;SDS011;553;51.038;7.216;2022-10-17T12:51:11;9.33;;;4.83;;
1128;SDS011;553;51.038;7.216;2022-10-17T12:54:12;5.33;;;4.67;;
1128;SDS011;553;51.038;7.216;2022-10-17T12:56:44;5.40;;;4.70;;
1128;SDS011;553;51.038;7.216;2022-10-17T13:01:47;5.97;;;5.07;;
1128;SDS011;553;51.038;7.216;2022-10-17T13:04:18;6.70;;;5.20;;
1128;SDS011;553;51.038;7.216;2022-10-17T13:06:46;8.00;;;4.87;;
1128;SDS011;553;51.038;7.216;2022-10-17T13:09:25;8.00;;;4.33;;
1128;SDS011;553;51.038;7.216;2022-10-17T13:11:52;5.73;;;4.90;;
1128;SDS011;553;51.038;7.216;2022-10-17T13:14:21;6.20;;;4.70;;
1128;SDS011;553;51.038;7.216;2022-10-17T13:16:53;8.10;;;5.50;;
1128;SDS011;553;51.038;7.216;2022-10-17T13:19:29;9.70;;;4.97;;
1128;SDS011;553;51.038;7.216;2022-10-17T13:22:18;6.60;;;4.27;;
1128;SDS011;553;51.038;7.216;2022-10-17T13:24:49;7.47;;;4.37;;
1128;SDS011;553;51.038;7.216;2022-10-17T13:27:22;7.73;;;4.40;;
1128;SDS011;553;51.038;7.216;2022-10-17T13:29:53;8.57;;;5.13;;
1128;SDS011;553;51.038;7.216;2022-10-17T13:32:22;10.43;;;5.80;;
1128;SDS011;553;51.038;7.216;2022-10-17T13:35:06;7.53;;;5.07;;
1128;SDS011;553;51.038;7.216;2022-10-17T13:37:35;7.40;;;5.10;;
1128;SDS011;553;51.038;7.216;2022-10-17T13:40:04;9.30;;;4.47;;
1128;SDS011;553;51.038;7.216;2022-10-17T13:42:52;6.67;;;4.80;;
1128;SDS011;553;51.038;7.216;2022-10-17T13:45:25;5.00;;;4.50;;
1128;SDS011;553;51.038;7.216;2022-10-17T13:47:54;9.67;;;4.47;;
1128;SDS011;553;51.038;7.216;2022-10-17T13:50:27;8.03;;;5.07;;
1128;SDS011;553;51.038;7.216;2022-10-17T13:56:16;8.13;;;5.03;;
1128;SDS011;553;51.038;7.216;2022-10-17T13:58:58;11.10;;;5.33;;
1128;SDS011;553;51.038;7.216;2022-10-17T14:01:28;11.13;;;4.60;;
1128;SDS011;553;51.038;7.216;2022-10-17T14:03:55;7.83;;;4.60;;
1128;SDS011;553;51.038;7.216;2022-10-17T14:06:41;5.63;;;5.13;;
1128;SDS011;553;51.038;7.216;2022-10-17T14:09:24;5.70;;;5.10;;
1128;SDS011;553;51.038;7.216;2022-10-17T14:12:00;7.30;;;5.07;;
1128;SDS011;553;51.038;7.216;2022-10-17T14:14:27;8.37;;;5.10;;
1128;SDS011;553;51.038;7.216;2022-10-17T14:17:11;9.57;;;5.10;;
1128;SDS011;553;51.038;7.216;2022-10-17T14:19:45;6.17;;;4.80;;
1128;SDS011;553;51.038;7.216;2022-10-17T14:22:43;7.53;;;4.40;;
1128;SDS011;553;51.038;7.216;2022-10-17T14:25:28;6.67;;;4.73;;
1128;SDS011;553;51.038;7.216;2022-10-17T14:30:43;6.43;;;4.63;;
1128;SDS011;553;51.038;7.216;2022-10-17T14:33:23;8.43;;;4.50;;
1128;SDS011;553;51.038;7.216;2022-10-17T14:35:54;9.77;;;5.30;;
1128;SDS011;553;51.038;7.216;2022-10-17T14:38:22;7.70;;;4.70;;
1128;SDS011;553;51.038;7.216;2022-10-17T14:40:51;7.00;;;4.90;;
1128;SDS011;553;51.038;7.216;2022-10-17T14:43:56;6.93;;;4.70;;
1128;SDS011;553;51.038;7.216;2022-10-17T14:46:28;6.27;;;3.47;;
1128;SDS011;553;51.038;7.216;2022-10-17T14:48:58;8.37;;;4.20;;
1128;SDS011;553;51.038;7.216;2022-10-17T14:51:29;9.67;;;5.03;;
1128;SDS011;553;51.038;7.216;2022-10-17T14:56:48;7.50;;;5.30;;
1128;SDS011;553;51.038;7.216;2022-10-17T14:59:18;10.83;;;4.57;;
1128;SDS011;553;51.038;7.216;2022-10-17T15:02:09;7.10;;;4.60;;
1128;SDS011;553;51.038;7.216;2022-10-17T15:04:36;7.27;;;4.87;;
1128;SDS011;553;51.038;7.216;2022-10-17T15:07:03;11.00;;;5.13;;
1128;SDS011;553;51.038;7.216;2022-10-17T15:09:29;7.10;;;4.50;;
1128;SDS011;553;51.038;7.216;2022-10-17T15:11:59;6.73;;;4.67;;
1128;SDS011;553;51.038;7.216;2022-10-17T15:14:27;8.30;;;4.83;;
1128;SDS011;553;51.038;7.216;2022-10-17T15:16:54;10.03;;;4.83;;
1128;SDS011;553;51.038;7.216;2022-10-17T15:19:21;7.27;;;4.20;;
1128;SDS011;553;51.038;7.216;2022-10-17T15:21:47;10.13;;;4.30;;
1128;SDS011;553;51.038;7.216;2022-10-17T15:24:14;6.67;;;4.03;;
1128;SDS011;553;51.038;7.216;2022-10-17T15:26:41;7.00;;;3.90;;
1128;SDS011;553;51.038;7.216;2022-10-17T15:29:09;6.07;;;3.70;;
1128;SDS011;553;51.038;7.216;2022-10-17T15:31:39;10.50;;;4.73;;
1128;SDS011;553;51.038;7.216;2022-10-17T15:34:06;8.87;;;4.37;;
1128;SDS011;553;51.038;7.216;2022-10-17T15:36:35;6.53;;;4.60;;
1128;SDS011;553;51.038;7.216;2022-10-17T15:39:05;8.03;;;4.60;;
1128;SDS011;553;51.038;7.216;2022-10-17T15:41:32;5.83;;;3.90;;
1128;SDS011;553;51.038;7.216;2022-10-17T15:43:59;7.93;;;4.10;;
1128;SDS011;553;51.038;7.216;2022-10-17T15:46:27;10.67;;;4.57;;
1128;SDS011;553;51.038;7.216;2022-10-17T15:49:00;5.17;;;3.40;;
1128;SDS011;553;51.038;7.216;2022-10-17T15:51:28;11.33;;;4.37;;
1128;SDS011;553;51.038;7.216;2022-10-17T15:53:55;5.47;;;3.90;;
1128;SDS011;553;51.038;7.216;2022-10-17T15:56:22;8.50;;;4.10;;
1128;SDS011;553;51.038;7.216;2022-10-17T15:58:52;8.83;;;4.30;;
1128;SDS011;553;51.038;7.216;2022-10-17T16:01:21;9.17;;;5.23;;
1128;SDS011;553;51.038;7.216;2022-10-17T16:03:49;7.60;;;5.17;;
1128;SDS011;553;51.038;7.216;2022-10-17T16:06:17;8.37;;;4.30;;
1128;SDS011;553;51.038;7.216;2022-10-17T16:08:44;10.37;;;4.07;;
1128;SDS011;553;51.038;7.216;2022-10-17T16:11:21;7.53;;;3.67;;
1128;SDS011;553;51.038;7.216;2022-10-17T16:13:52;8.60;;;3.93;;
1128;SDS011;553;51.038;7.216;2022-10-17T16:16:20;9.13;;;3.93;;
1128;SDS011;553;51.038;7.216;2022-10-17T16:18:47;3.97;;;3.57;;
1128;SDS011;553;51.038;7.216;2022-10-17T16:21:15;6.30;;;3.53;;
1128;SDS011;553;51.038;7.216;2022-10-17T16:23:42;5.03;;;3.20;;
1128;SDS011;553;51.038;7.216;2022-10-17T16:26:10;13.17;;;4.70;;
1128;SDS011;553;51.038;7.216;2022-10-17T16:28:43;12.90;;;4.37;;
1128;SDS011;553;51.038;7.216;2022-10-17T16:31:14;6.20;;;3.77;;
1128;SDS011;553;51.038;7.216;2022-10-17T16:33:45;6.67;;;3.90;;
1128;SDS011;553;51.038;7.216;2022-10-17T16:36:12;13.30;;;4.40;;
1128;SDS011;553;51.038;7.216;2022-10-17T16:38:39;5.30;;;4.47;;
1128;SDS011;553;51.038;7.216;2022-10-17T16:41:20;7.90;;;4.30;;
1128;SDS011;553;51.038;7.216;2022-10-17T16:44:02;9.13;;;5.63;;
1128;SDS011;553;51.038;7.216;2022-10-17T16:46:30;10.23;;;5.10;;
1128;SDS011;553;51.038;7.216;2022-10-17T16:48:58;9.90;;;5.80;;
1128;SDS011;553;51.038;7.216;2022-10-17T16:51:25;12.70;;;5.30;;
1128;SDS011;553;51.038;7.216;2022-10-17T16:53:52;13.50;;;6.13;;
1128;SDS011;553;51.038;7.216;2022-10-17T16:56:20;10.00;;;5.50;;
1128;SDS011;553;51.038;7.216;2022-10-17T16:58:48;9.70;;;5.80;;
1128;SDS011;553;51.038;7.216;2022-10-17T17:01:17;7.53;;;6.13;;
1128;SDS011;553;51.038;7.216;2022-10-17T17:03:46;8.60;;;6.30;;
1128;SDS011;553;51.038;7.216;2022-10-17T17:06:14;13.90;;;7.43;;
1128;SDS011;553;51.038;7.216;2022-10-17T17:08:44;11.50;;;6.70;;
1128;SDS011;553;51.038;7.216;2022-10-17T17:11:11;8.77;;;6.23;;
1128;SDS011;553;51.038;7.216;2022-10-17T17:13:41;11.87;;;7.20;;
1128;SDS011;553;51.038;7.216;2022-10-17T17:18:42;10.47;;;7.50;;
1128;SDS011;553;51.038;7.216;2022-10-17T17:21:11;12.67;;;6.80;;
1128;SDS011;553;51.038;7.216;2022-10-17T17:23:39;10.53;;;7.30;;
1128;SDS011;553;51.038;7.216;2022-10-17T17:26:08;13.97;;;7.50;;
1128;SDS011;553;51.038;7.216;2022-10-17T17:28:40;9.70;;;7.50;;
1128;SDS011;553;51.038;7.216;2022-10-17T17:31:12;9.93;;;8.30;;
1128;SDS011;553;51.038;7.216;2022-10-17T17:33:41;13.17;;;8.37;;
1128;SDS011;553;51.038;7.216;2022-10-17T17:36:09;12.33;;;8.80;;
1128;SDS011;553;51.038;7.216;2022-10-17T17:38:39;13.50;;;9.10;;
1128;SDS011;553;51.038;7.216;2022-10-17T17:41:06;14.77;;;9.00;;
1128;SDS011;553;51.038;7.216;2022-10-17T17:43:34;15.10;;;10.00;;
1128;SDS011;553;51.038;7.216;2022-10-17T17:46:01;18.40;;;9.97;;
1128;SDS011;553;51.038;7.216;2022-10-17T17:48:27;15.27;;;10.17;;